createdAt,value
2023-02-12T00:00:57.020Z,18.93
2023-02-12T00:01:58.836Z,19.16
2023-02-12T00:03:00.622Z,19.03
2023-02-12T00:04:02.517Z,19.13
2023-02-12T00:05:04.536Z,18.94
2023-02-12T00:06:08.177Z,18.98
2023-02-12T00:07:10.630Z,19.05
2023-02-12T00:08:12.526Z,19.05
2023-02-12T00:09:14.332Z,19.38
2023-02-12T00:10:16.283Z,19.01
2023-02-12T00:11:25.128Z,19.18
2023-02-12T00:12:26.904Z,19.28
2023-02-12T00:13:31.573Z,18.86
2023-02-12T00:14:34.621Z,19.02
2023-02-12T00:15:39.545Z,19.12
2023-02-12T00:16:41.429Z,18.96
2023-02-12T00:17:43.210Z,18.97
2023-02-12T00:18:45.936Z,19.06
2023-02-12T00:19:48.440Z,19.13
2023-02-12T00:20:50.271Z,19.21
2023-02-12T00:21:52.146Z,19.51
2023-02-12T00:22:53.978Z,19.14
2023-02-12T00:23:55.998Z,19.16
2023-02-12T00:24:57.836Z,19.48
2023-02-12T00:25:59.820Z,19.35
2023-02-12T00:27:01.611Z,19.26
2023-02-12T00:28:03.509Z,19.49
2023-02-12T00:29:05.363Z,19.29
2023-02-12T00:30:07.659Z,19.63
2023-02-12T00:31:22.549Z,19.58
2023-02-12T00:32:24.452Z,19.56
2023-02-12T00:33:26.245Z,19.47
2023-02-12T00:34:28.088Z,19.49
2023-02-12T00:35:29.925Z,19.44
2023-02-12T00:36:32.515Z,19.34
2023-02-12T00:37:34.464Z,19.16
2023-02-12T00:38:36.289Z,19.31
2023-02-12T00:39:38.356Z,19.55
2023-02-12T00:40:40.293Z,19.46
2023-02-12T00:41:42.244Z,19.22
2023-02-12T00:42:44.371Z,19.52
2023-02-12T00:43:46.766Z,19.44
2023-02-12T00:44:48.615Z,19.43
2023-02-12T00:45:50.635Z,19.58
2023-02-12T00:46:52.472Z,19.61
2023-02-12T00:47:54.246Z,19.70
2023-02-12T00:48:56.034Z,19.38
2023-02-12T00:49:57.933Z,19.47
2023-02-12T00:50:59.852Z,19.46
2023-02-12T00:52:04.805Z,19.57
2023-02-12T00:53:07.400Z,19.63
2023-02-12T00:54:09.163Z,19.25
2023-02-12T00:55:10.978Z,19.54
2023-02-12T00:56:12.805Z,19.74
2023-02-12T00:57:15.315Z,19.38
2023-02-12T00:58:19.017Z,19.52
2023-02-12T00:59:20.913Z,19.35
2023-02-12T01:00:22.913Z,19.48
2023-02-12T01:01:24.936Z,19.85
2023-02-12T01:02:26.911Z,19.73
2023-02-12T01:03:28.862Z,19.60
2023-02-12T01:04:30.725Z,19.33
2023-02-12T01:05:32.878Z,19.29
2023-02-12T01:06:34.730Z,19.77
2023-02-12T01:07:38.624Z,19.29
2023-02-12T01:08:40.451Z,19.41
2023-02-12T01:09:42.318Z,19.68
2023-02-12T01:10:44.749Z,19.76
2023-02-12T01:11:46.560Z,19.75
2023-02-12T01:12:48.549Z,19.34
2023-02-12T01:13:50.518Z,19.88
2023-02-12T01:14:52.720Z,19.38
2023-02-12T01:16:11.033Z,19.53
2023-02-12T01:17:12.899Z,19.58
2023-02-12T01:18:16.281Z,19.77
2023-02-12T01:19:18.746Z,19.52
2023-02-12T01:20:23.388Z,19.74
2023-02-12T01:21:29.070Z,19.81
2023-02-12T01:22:30.853Z,19.70
2023-02-12T01:23:33.496Z,19.67
2023-02-12T01:24:35.342Z,19.90
2023-02-12T01:25:38.935Z,19.92
2023-02-12T01:26:40.697Z,19.82
2023-02-12T01:27:42.492Z,19.75
2023-02-12T01:28:50.542Z,19.94
2023-02-12T01:29:52.460Z,19.59
2023-02-12T01:30:56.224Z,19.46
2023-02-12T01:31:58.193Z,19.41
2023-02-12T01:33:00.669Z,19.45
2023-02-12T01:34:02.923Z,19.75
2023-02-12T01:35:05.644Z,19.68
2023-02-12T01:36:08.605Z,19.95
2023-02-12T01:37:10.529Z,19.66
2023-02-12T01:38:12.358Z,19.58
2023-02-12T01:39:14.331Z,19.69
2023-02-12T01:40:18.095Z,19.71
2023-02-12T01:41:25.718Z,19.44
2023-02-12T01:42:27.613Z,19.93
2023-02-12T01:43:29.423Z,19.94
2023-02-12T01:44:32.949Z,19.56
2023-02-12T01:45:37.330Z,19.72
2023-02-12T01:46:40.030Z,19.88
2023-02-12T01:47:44.458Z,19.86
2023-02-12T01:48:47.682Z,19.65
2023-02-12T01:49:49.590Z,19.77
2023-02-12T01:50:53.208Z,20.07
2023-02-12T01:52:07.641Z,19.90
2023-02-12T01:53:09.801Z,19.92
2023-02-12T01:54:13.353Z,20.07
2023-02-12T01:55:16.540Z,19.83
2023-02-12T01:56:18.645Z,20.07
2023-02-12T01:57:20.785Z,19.96
2023-02-12T01:58:25.354Z,20.10
2023-02-12T01:59:27.634Z,20.07
2023-02-12T02:00:29.493Z,20.14
2023-02-12T02:01:34.350Z,19.95
2023-02-12T02:02:39.372Z,19.83
2023-02-12T02:03:45.552Z,19.78
2023-02-12T02:04:53.656Z,20.16
2023-02-12T02:06:02.105Z,20.06
2023-02-12T02:07:06.877Z,20.01
2023-02-12T02:08:10.047Z,20.01
2023-02-12T02:09:12.435Z,20.11
2023-02-12T02:10:14.264Z,19.82
2023-02-12T02:11:34.789Z,19.83
2023-02-12T02:12:56.578Z,19.87
2023-02-12T02:14:16.954Z,19.72
2023-02-12T02:15:18.983Z,20.04
2023-02-12T02:16:26.854Z,20.19
2023-02-12T02:17:46.871Z,19.90
2023-02-12T02:19:05.881Z,19.87
2023-02-12T02:20:38.841Z,19.90
2023-02-12T02:22:03.716Z,19.88
2023-02-12T02:23:37.102Z,20.13
2023-02-12T02:24:51.055Z,20.06
2023-02-12T02:26:24.035Z,19.84
2023-02-12T02:27:44.837Z,19.63
2023-02-12T02:28:52.532Z,19.57
2023-02-12T02:30:19.172Z,19.88
2023-02-12T02:31:25.865Z,19.79
2023-02-12T02:32:32.620Z,20.14
2023-02-12T02:33:47.011Z,20.25
2023-02-12T02:35:00.945Z,20.19
2023-02-12T02:36:27.929Z,20.11
2023-02-12T02:37:36.055Z,19.77
2023-02-12T02:39:03.908Z,19.84
2023-02-12T02:40:18.230Z,20.02
2023-02-12T02:41:26.146Z,19.98
2023-02-12T02:42:35.398Z,20.19
2023-02-12T02:43:47.357Z,20.05
2023-02-12T02:44:54.235Z,20.17
2023-02-12T02:46:01.709Z,20.28
2023-02-12T02:47:08.325Z,20.18
2023-02-12T02:48:19.260Z,20.43
2023-02-12T02:49:51.372Z,19.86
2023-02-12T02:50:59.828Z,20.19
2023-02-12T02:52:07.042Z,20.15
2023-02-12T02:53:14.644Z,20.40
2023-02-12T02:54:22.046Z,20.09
2023-02-12T02:55:29.145Z,20.01
2023-02-12T02:56:35.417Z,20.26
2023-02-12T02:57:58.765Z,20.39
2023-02-12T02:59:07.453Z,19.92
2023-02-12T03:00:22.941Z,20.17
2023-02-12T03:01:32.924Z,20.09
2023-02-12T03:02:40.588Z,20.27
2023-02-12T03:03:59.849Z,20.26
2023-02-12T03:05:09.102Z,20.41
2023-02-12T03:06:18.997Z,20.49
2023-02-12T03:07:27.384Z,19.96
2023-02-12T03:08:40.041Z,20.31
2023-02-12T03:09:54.289Z,20.32
2023-02-12T03:11:02.550Z,20.36
2023-02-12T03:12:14.278Z,20.03
2023-02-12T03:13:26.728Z,20.41
2023-02-12T03:14:54.812Z,20.45
2023-02-12T03:16:05.514Z,20.39
2023-02-12T03:17:13.225Z,20.40
2023-02-12T03:18:22.460Z,20.67
2023-02-12T03:19:29.184Z,20.19
2023-02-12T03:20:36.209Z,20.51
2023-02-12T03:21:45.978Z,20.34
2023-02-12T03:22:56.243Z,20.24
2023-02-12T03:24:05.288Z,20.31
2023-02-12T03:25:14.998Z,20.27
2023-02-12T03:26:23.637Z,20.15
2023-02-12T03:27:33.802Z,20.40
2023-02-12T03:28:38.167Z,20.07
2023-02-12T03:29:40.176Z,20.30
2023-02-12T03:30:58.168Z,20.39
2023-02-12T03:32:14.274Z,20.46
2023-02-12T03:33:28.851Z,20.25
2023-02-12T03:34:51.875Z,20.71
2023-02-12T03:36:42.804Z,20.15
2023-02-12T03:38:04.398Z,20.32
2023-02-12T03:39:16.854Z,20.19
2023-02-12T03:40:43.410Z,20.23
2023-02-12T03:41:50.227Z,20.14
2023-02-12T03:43:33.159Z,20.08
2023-02-12T03:45:12.837Z,20.36
2023-02-12T03:46:25.972Z,20.59
2023-02-12T03:47:40.667Z,20.66
2023-02-12T03:48:57.157Z,20.41
2023-02-12T03:50:20.385Z,20.47
2023-02-12T03:51:26.770Z,20.50
2023-02-12T03:52:29.783Z,20.55
2023-02-12T03:53:32.629Z,20.40
2023-02-12T03:54:34.524Z,20.55
2023-02-12T03:55:41.347Z,20.56
2023-02-12T03:56:52.207Z,20.50
2023-02-12T03:58:01.492Z,20.63
2023-02-12T03:59:05.172Z,20.60
2023-02-12T04:00:17.136Z,20.49
2023-02-12T04:01:22.472Z,20.81
2023-02-12T04:02:24.993Z,20.68
2023-02-12T04:03:28.199Z,20.54
2023-02-12T04:04:30.983Z,20.67
2023-02-12T04:05:32.798Z,20.53
2023-02-12T04:06:34.659Z,20.70
2023-02-12T04:07:37.619Z,20.74
2023-02-12T04:08:39.609Z,20.87
2023-02-12T04:09:41.612Z,20.99
2023-02-12T04:11:01.439Z,20.94
2023-02-12T04:12:15.125Z,20.51
2023-02-12T04:13:20.816Z,20.41
2023-02-12T04:14:53.171Z,20.87
2023-02-12T04:16:16.511Z,20.58
2023-02-12T04:17:27.659Z,20.67
2023-02-12T04:18:35.576Z,20.54
2023-02-12T04:19:51.684Z,20.70
2023-02-12T04:21:25.505Z,20.67
2023-02-12T04:22:46.058Z,20.74
2023-02-12T04:23:59.771Z,20.66
2023-02-12T04:25:07.454Z,20.52
2023-02-12T04:26:14.647Z,20.56
2023-02-12T04:27:34.272Z,21.09
2023-02-12T04:28:50.748Z,20.89
2023-02-12T04:30:25.859Z,21.01
2023-02-12T04:31:38.439Z,21.09
2023-02-12T04:32:56.493Z,20.71
2023-02-12T04:34:10.373Z,21.11
2023-02-12T04:35:18.248Z,20.99
2023-02-12T04:36:27.800Z,20.90
2023-02-12T04:37:38.669Z,21.26
2023-02-12T04:38:57.014Z,21.27
2023-02-12T04:40:00.256Z,20.86
2023-02-12T04:41:05.032Z,21.13
2023-02-12T04:42:07.573Z,21.14
2023-02-12T04:43:09.572Z,20.97
2023-02-12T04:44:23.863Z,21.22
2023-02-12T04:45:34.876Z,20.90
2023-02-12T04:46:36.701Z,21.43
2023-02-12T04:47:38.795Z,21.13
2023-02-12T04:48:55.760Z,21.44
2023-02-12T04:49:57.645Z,20.91
2023-02-12T04:50:59.402Z,21.22
2023-02-12T04:52:01.341Z,21.14
2023-02-12T04:53:03.169Z,21.00
2023-02-12T04:54:05.086Z,21.07
2023-02-12T04:55:07.041Z,21.63
2023-02-12T04:56:11.794Z,21.25
2023-02-12T04:57:13.648Z,21.40
2023-02-12T04:58:15.422Z,21.77
2023-02-12T04:59:17.565Z,21.87
2023-02-12T05:00:19.696Z,21.65
2023-02-12T05:01:21.585Z,21.48
2023-02-12T05:02:23.404Z,21.56
2023-02-12T05:03:25.311Z,21.38
2023-02-12T05:04:27.103Z,21.79
2023-02-12T05:05:28.994Z,21.57
2023-02-12T05:06:31.574Z,21.33
2023-02-12T05:07:33.412Z,21.78
2023-02-12T05:08:35.604Z,21.42
2023-02-12T05:09:37.588Z,21.66
2023-02-12T05:10:39.460Z,21.89
2023-02-12T05:11:41.396Z,21.67
2023-02-12T05:12:43.175Z,21.70
2023-02-12T05:13:49.521Z,21.60
2023-02-12T05:14:51.379Z,22.05
2023-02-12T05:15:53.517Z,21.67
2023-02-12T05:16:55.638Z,21.56
2023-02-12T05:17:57.478Z,21.73
2023-02-12T05:18:59.482Z,21.62
2023-02-12T05:20:01.284Z,21.90
2023-02-12T05:21:04.995Z,21.84
2023-02-12T05:22:06.944Z,21.68
2023-02-12T05:23:08.809Z,21.26
2023-02-12T05:24:10.663Z,21.62
2023-02-12T05:25:12.555Z,21.83
2023-02-12T05:26:18.410Z,22.07
2023-02-12T05:27:20.186Z,21.63
2023-02-12T05:28:22.079Z,21.99
2023-02-12T05:29:24.131Z,21.76
2023-02-12T05:30:25.888Z,22.24
2023-02-12T05:31:28.072Z,21.86
2023-02-12T05:32:29.944Z,22.00
2023-02-12T05:33:32.700Z,21.73
2023-02-12T05:34:35.319Z,21.83
2023-02-12T05:35:37.118Z,22.01
2023-02-12T05:36:39.474Z,21.65
2023-02-12T05:37:41.349Z,21.76
2023-02-12T05:38:43.402Z,21.88
2023-02-12T05:39:45.209Z,22.02
2023-02-12T05:40:47.397Z,21.96
2023-02-12T05:41:49.186Z,22.26
2023-02-12T05:42:51.030Z,21.71
2023-02-12T05:43:53.356Z,22.07
2023-02-12T05:44:55.168Z,22.04
2023-02-12T05:46:00.063Z,22.13
2023-02-12T05:47:01.930Z,21.71
2023-02-12T05:48:04.220Z,22.09
2023-02-12T05:49:06.001Z,22.34
2023-02-12T05:50:08.577Z,22.11
2023-02-12T05:51:15.675Z,22.38
2023-02-12T05:52:17.497Z,22.26
2023-02-12T05:53:19.333Z,21.91
2023-02-12T05:54:21.226Z,21.73
2023-02-12T05:55:23.073Z,22.08
2023-02-12T05:56:27.812Z,22.16
2023-02-12T05:57:29.613Z,22.19
2023-02-12T05:58:31.451Z,21.97
2023-02-12T05:59:33.898Z,22.17
2023-02-12T06:00:35.696Z,22.21
2023-02-12T06:01:40.010Z,21.82
2023-02-12T06:02:41.857Z,22.29
2023-02-12T06:03:44.108Z,22.26
2023-02-12T06:04:48.459Z,22.04
2023-02-12T06:05:51.737Z,22.25
2023-02-12T06:06:55.787Z,22.00
2023-02-12T06:07:57.565Z,22.08
2023-02-12T06:08:59.866Z,21.90
2023-02-12T06:10:01.775Z,22.13
2023-02-12T06:11:06.104Z,21.83
2023-02-12T06:12:07.868Z,22.22
2023-02-12T06:13:09.769Z,22.14
2023-02-12T06:14:14.679Z,22.39
2023-02-12T06:15:16.581Z,22.31
2023-02-12T06:16:21.669Z,22.01
2023-02-12T06:17:23.493Z,22.40
2023-02-12T06:18:25.821Z,22.48
2023-02-12T06:19:27.981Z,22.43
2023-02-12T06:20:30.011Z,22.34
2023-02-12T06:21:33.554Z,22.62
2023-02-12T06:22:35.414Z,22.50
2023-02-12T06:23:37.250Z,22.55
2023-02-12T06:24:39.065Z,22.63
2023-02-12T06:25:40.828Z,22.35
2023-02-12T06:26:43.121Z,22.44
2023-02-12T06:27:44.968Z,22.59
2023-02-12T06:28:47.923Z,22.89
2023-02-12T06:29:49.706Z,22.57
2023-02-12T06:30:51.604Z,22.60
2023-02-12T06:31:53.592Z,22.62
2023-02-12T06:32:55.423Z,22.27
2023-02-12T06:34:01.195Z,22.78
2023-02-12T06:35:03.168Z,22.69
2023-02-12T06:36:05.388Z,22.49
2023-02-12T06:37:07.265Z,22.50
2023-02-12T06:38:10.364Z,22.34
2023-02-12T06:39:13.589Z,22.57
2023-02-12T06:40:15.681Z,22.35
2023-02-12T06:41:18.017Z,22.27
2023-02-12T06:42:19.990Z,22.33
2023-02-12T06:43:21.806Z,22.73
2023-02-12T06:44:23.800Z,22.81
2023-02-12T06:45:25.648Z,22.46
2023-02-12T06:46:27.751Z,22.60
2023-02-12T06:47:29.542Z,22.75
2023-02-12T06:48:32.122Z,22.65
2023-02-12T06:49:33.918Z,22.36
2023-02-12T06:50:35.853Z,22.57
2023-02-12T06:51:38.494Z,22.68
2023-02-12T06:52:40.314Z,22.81
2023-02-12T06:53:43.060Z,22.38
2023-02-12T06:54:44.881Z,22.33
2023-02-12T06:55:46.711Z,22.58
2023-02-12T06:56:48.753Z,22.88
2023-02-12T06:57:50.571Z,22.57
2023-02-12T06:58:55.828Z,22.69
2023-02-12T06:59:57.595Z,22.52
2023-02-12T07:01:12.467Z,22.64
2023-02-12T07:02:14.400Z,22.62
2023-02-12T07:03:16.160Z,22.51
2023-02-12T07:04:18.008Z,22.76
2023-02-12T07:05:20.368Z,22.84
2023-02-12T07:06:23.138Z,22.58
2023-02-12T07:07:25.081Z,22.81
2023-02-12T07:08:26.920Z,23.03
2023-02-12T07:09:28.768Z,23.14
2023-02-12T07:10:30.690Z,22.74
2023-02-12T07:11:37.605Z,22.62
2023-02-12T07:12:40.088Z,22.51
2023-02-12T07:13:43.278Z,22.35
2023-02-12T07:14:45.100Z,22.88
2023-02-12T07:15:46.873Z,22.76
2023-02-12T07:16:51.335Z,22.79
2023-02-12T07:17:53.357Z,22.62
2023-02-12T07:18:55.270Z,22.66
2023-02-12T07:19:57.309Z,22.74
2023-02-12T07:20:59.175Z,22.59
2023-02-12T07:22:00.963Z,22.55
2023-02-12T07:23:02.869Z,22.74
2023-02-12T07:24:04.891Z,22.58
2023-02-12T07:25:06.773Z,22.47
2023-02-12T07:26:13.203Z,22.60
2023-02-12T07:27:15.516Z,22.30
2023-02-12T07:28:17.366Z,22.55
2023-02-12T07:29:19.200Z,22.04
2023-02-12T07:30:21.162Z,22.29
2023-02-12T07:31:24.005Z,22.69
2023-02-12T07:32:25.905Z,22.52
2023-02-12T07:33:27.777Z,22.23
2023-02-12T07:34:29.589Z,22.33
2023-02-12T07:35:31.388Z,22.43
2023-02-12T07:36:34.380Z,22.41
2023-02-12T07:37:36.164Z,22.04
2023-02-12T07:38:39.944Z,21.94
2023-02-12T07:39:41.948Z,22.01
2023-02-12T07:40:43.731Z,22.00
2023-02-12T07:41:45.590Z,22.04
2023-02-12T07:42:50.076Z,21.65
2023-02-12T07:43:58.385Z,21.83
2023-02-12T07:45:00.172Z,21.96
2023-02-12T07:46:11.392Z,21.90
2023-02-12T07:47:13.311Z,22.14
2023-02-12T07:48:15.115Z,21.67
2023-02-12T07:49:20.273Z,21.68
2023-02-12T07:50:22.194Z,21.85
2023-02-12T07:51:24.089Z,21.63
2023-02-12T07:52:25.921Z,21.77
2023-02-12T07:53:27.745Z,21.85
2023-02-12T07:54:29.509Z,21.59
2023-02-12T07:55:31.362Z,21.84
2023-02-12T07:56:35.768Z,21.82
2023-02-12T07:57:37.635Z,21.55
2023-02-12T07:58:41.383Z,21.75
2023-02-12T07:59:43.168Z,21.98
2023-02-12T08:00:44.997Z,21.52
2023-02-12T08:01:49.267Z,21.75
2023-02-12T08:02:53.104Z,21.73
2023-02-12T08:03:59.003Z,21.46
2023-02-12T08:05:00.853Z,21.37
2023-02-12T08:06:08.412Z,21.81
2023-02-12T08:07:10.339Z,21.43
2023-02-12T08:08:12.162Z,21.49
2023-02-12T08:09:16.948Z,21.47
2023-02-12T08:10:22.328Z,21.51
2023-02-12T08:11:25.581Z,21.71
2023-02-12T08:12:27.424Z,21.38
2023-02-12T08:13:29.174Z,21.13
2023-02-12T08:14:31.080Z,21.48
2023-02-12T08:15:32.863Z,21.45
2023-02-12T08:16:39.413Z,21.27
2023-02-12T08:17:43.589Z,21.38
2023-02-12T08:18:46.222Z,21.20
2023-02-12T08:19:48.064Z,21.75
2023-02-12T08:20:49.840Z,21.61
2023-02-12T08:21:52.929Z,21.67
2023-02-12T08:22:54.695Z,21.73
2023-02-12T08:23:58.433Z,21.75
2023-02-12T08:25:00.358Z,21.64
2023-02-12T08:26:09.837Z,21.30
2023-02-12T08:27:11.663Z,21.53
2023-02-12T08:28:13.700Z,21.46
2023-02-12T08:29:18.831Z,21.72
2023-02-12T08:30:20.655Z,21.72
2023-02-12T08:31:24.919Z,21.84
2023-02-12T08:32:26.897Z,21.54
2023-02-12T08:33:28.815Z,21.60
2023-02-12T08:34:33.555Z,21.38
2023-02-12T08:35:35.331Z,21.48
2023-02-12T08:36:39.816Z,21.63
2023-02-12T08:37:41.668Z,21.63
2023-02-12T08:38:45.048Z,21.53
2023-02-12T08:39:48.793Z,21.52
2023-02-12T08:40:50.596Z,21.75
2023-02-12T08:41:55.235Z,21.79
2023-02-12T08:42:57.062Z,21.88
2023-02-12T08:44:01.783Z,21.95
2023-02-12T08:45:03.782Z,21.57
2023-02-12T08:46:14.684Z,21.88
2023-02-12T08:47:16.472Z,21.68
2023-02-12T08:48:20.714Z,21.66
2023-02-12T08:49:25.260Z,21.59
2023-02-12T08:50:27.037Z,21.57
2023-02-12T08:51:36.196Z,21.72
2023-02-12T08:52:38.001Z,21.60
2023-02-12T08:53:41.284Z,21.58
2023-02-12T08:54:43.034Z,21.57
2023-02-12T08:55:51.006Z,22.03
2023-02-12T08:56:57.699Z,21.95
2023-02-12T08:57:59.547Z,21.65
2023-02-12T08:59:04.172Z,21.98
2023-02-12T09:00:06.854Z,21.74
2023-02-12T09:01:23.648Z,22.08
2023-02-12T09:02:25.616Z,21.89
2023-02-12T09:03:27.746Z,21.88
2023-02-12T09:04:30.258Z,21.75
2023-02-12T09:05:32.236Z,21.79
2023-02-12T09:06:35.828Z,21.69
2023-02-12T09:07:37.678Z,21.78
2023-02-12T09:08:40.563Z,21.60
2023-02-12T09:09:42.358Z,22.02
2023-02-12T09:10:45.090Z,21.91
2023-02-12T09:11:48.001Z,21.80
2023-02-12T09:12:50.080Z,22.07
2023-02-12T09:13:51.934Z,21.68
2023-02-12T09:14:53.693Z,21.94
2023-02-12T09:15:55.732Z,21.69
2023-02-12T09:16:58.291Z,21.79
2023-02-12T09:18:04.072Z,21.96
2023-02-12T09:19:05.944Z,21.92
2023-02-12T09:20:08.177Z,21.73
2023-02-12T09:21:14.241Z,21.84
2023-02-12T09:22:16.092Z,21.68
2023-02-12T09:23:17.968Z,21.78
2023-02-12T09:24:19.827Z,21.93
2023-02-12T09:25:21.637Z,21.87
2023-02-12T09:26:28.271Z,22.07
2023-02-12T09:27:31.364Z,21.98
2023-02-12T09:28:34.224Z,21.75
2023-02-12T09:29:36.120Z,21.68
2023-02-12T09:30:39.292Z,21.84
2023-02-12T09:31:41.450Z,21.75
2023-02-12T09:32:43.358Z,22.03
2023-02-12T09:33:45.221Z,21.98
2023-02-12T09:34:46.964Z,22.08
2023-02-12T09:35:48.810Z,21.64
2023-02-12T09:36:50.922Z,22.12
2023-02-12T09:37:53.613Z,21.97
2023-02-12T09:38:56.658Z,21.80
2023-02-12T09:39:58.461Z,22.13
2023-02-12T09:41:12.498Z,22.18
2023-02-12T09:42:34.853Z,21.85
2023-02-12T09:43:41.600Z,21.76
2023-02-12T09:45:13.097Z,21.87
2023-02-12T09:46:33.796Z,21.67
2023-02-12T09:48:15.084Z,21.80
2023-02-12T09:49:16.818Z,21.60
2023-02-12T09:50:33.088Z,21.86
2023-02-12T09:51:36.752Z,21.75
2023-02-12T09:52:38.702Z,21.96
2023-02-12T09:53:49.458Z,21.83
2023-02-12T09:54:51.537Z,21.84
2023-02-12T09:55:54.601Z,21.95
2023-02-12T09:56:59.475Z,21.83
2023-02-12T09:58:03.728Z,21.97
2023-02-12T09:59:08.954Z,22.14
2023-02-12T10:00:31.973Z,21.92
2023-02-12T10:01:34.484Z,22.06
2023-02-12T10:02:38.462Z,21.76
2023-02-12T10:03:40.709Z,21.64
2023-02-12T10:05:00.156Z,22.07
2023-02-12T10:06:11.489Z,22.03
2023-02-12T10:07:19.150Z,21.75
2023-02-12T10:08:44.304Z,21.86
2023-02-12T10:10:16.729Z,21.99
2023-02-12T10:11:48.429Z,21.87
2023-02-12T10:13:38.031Z,21.46
2023-02-12T10:15:05.161Z,21.65
2023-02-12T10:16:12.921Z,21.27
2023-02-12T10:17:22.812Z,21.67
2023-02-12T10:18:57.028Z,21.71
2023-02-12T10:20:36.055Z,21.64
2023-02-12T10:22:09.920Z,21.93
2023-02-12T10:23:32.160Z,21.92
2023-02-12T10:24:44.407Z,21.87
2023-02-12T10:26:01.281Z,21.83
2023-02-12T10:27:09.989Z,21.72
2023-02-12T10:28:16.851Z,21.97
2023-02-12T10:29:29.243Z,22.07
2023-02-12T10:30:42.906Z,21.78
2023-02-12T10:31:49.784Z,22.08
2023-02-12T10:32:59.030Z,21.94
2023-02-12T10:34:00.860Z,22.15
2023-02-12T10:35:13.848Z,21.97
2023-02-12T10:36:42.218Z,22.14
2023-02-12T10:37:50.590Z,21.92
2023-02-12T10:38:59.068Z,21.99
2023-02-12T10:40:06.952Z,21.91
2023-02-12T10:41:12.612Z,22.16
2023-02-12T10:42:31.707Z,22.01
2023-02-12T10:43:33.533Z,22.17
2023-02-12T10:44:35.339Z,21.79
2023-02-12T10:45:40.625Z,22.10
2023-02-12T10:46:42.452Z,21.99
2023-02-12T10:47:46.081Z,22.20
2023-02-12T10:48:58.897Z,22.14
2023-02-12T10:50:11.539Z,22.08
2023-02-12T10:51:59.422Z,21.94
2023-02-12T10:53:05.551Z,21.74
2023-02-12T10:54:41.100Z,22.10
2023-02-12T10:55:43.676Z,21.77
2023-02-12T10:56:45.603Z,21.77
2023-02-12T10:57:47.528Z,21.93
2023-02-12T10:58:55.846Z,21.81
2023-02-12T11:00:22.690Z,22.20
2023-02-12T11:01:37.137Z,21.67
2023-02-12T11:02:39.282Z,21.68
2023-02-12T11:03:41.256Z,21.89
2023-02-12T11:04:43.136Z,21.44
2023-02-12T11:05:45.206Z,22.18
2023-02-12T11:07:13.223Z,22.00
2023-02-12T11:08:34.930Z,21.78
2023-02-12T11:09:45.385Z,21.92
2023-02-12T11:10:47.398Z,21.87
2023-02-12T11:11:49.660Z,22.06
2023-02-12T11:12:52.280Z,22.16
2023-02-12T11:13:58.358Z,21.79
2023-02-12T11:15:03.679Z,21.90
2023-02-12T11:16:06.125Z,21.96
2023-02-12T11:17:37.046Z,22.08
2023-02-12T11:18:38.984Z,22.00
2023-02-12T11:19:41.739Z,22.16
2023-02-12T11:20:52.151Z,22.21
2023-02-12T11:22:10.146Z,21.85
2023-02-12T11:23:28.557Z,21.86
2023-02-12T11:24:33.909Z,21.82
2023-02-12T11:25:37.861Z,22.02
2023-02-12T11:26:39.768Z,22.18
2023-02-12T11:27:42.019Z,21.97
2023-02-12T11:29:17.970Z,22.25
2023-02-12T11:30:21.506Z,22.07
2023-02-12T11:31:28.968Z,22.22
2023-02-12T11:32:30.793Z,22.00
2023-02-12T11:33:37.060Z,21.69
2023-02-12T11:34:38.926Z,21.87
2023-02-12T11:36:10.016Z,22.03
2023-02-12T11:37:21.149Z,22.13
2023-02-12T11:38:39.149Z,21.66
2023-02-12T11:39:45.768Z,21.88
2023-02-12T11:40:48.186Z,21.94
2023-02-12T11:41:55.043Z,21.96
2023-02-12T11:43:09.437Z,21.89
2023-02-12T11:44:19.582Z,21.93
2023-02-12T11:45:32.040Z,21.82
2023-02-12T11:46:34.181Z,22.14
2023-02-12T11:47:40.445Z,22.24
2023-02-12T11:48:47.579Z,21.84
2023-02-12T11:49:54.077Z,21.88
2023-02-12T11:50:59.354Z,22.33
2023-02-12T11:52:03.555Z,22.24
2023-02-12T11:53:09.607Z,21.96
2023-02-12T11:54:19.724Z,22.12
2023-02-12T11:55:33.429Z,21.94
2023-02-12T11:57:01.683Z,21.85
2023-02-12T11:58:23.635Z,22.03
2023-02-12T11:59:37.737Z,22.32
2023-02-12T12:00:46.855Z,21.89
2023-02-12T12:01:51.544Z,21.95
2023-02-12T12:03:11.648Z,22.31
2023-02-12T12:04:15.672Z,22.08
2023-02-12T12:05:21.048Z,22.18
2023-02-12T12:06:43.148Z,22.27
2023-02-12T12:07:57.184Z,21.93
2023-02-12T12:09:25.154Z,21.77
2023-02-12T12:11:08.242Z,21.99
2023-02-12T12:12:38.956Z,21.79
2023-02-12T12:13:49.676Z,21.74
2023-02-12T12:15:22.093Z,21.81
2023-02-12T12:16:55.875Z,21.78
2023-02-12T12:18:45.181Z,22.05
2023-02-12T12:19:59.504Z,21.80
2023-02-12T12:21:13.982Z,22.03
2023-02-12T12:22:52.951Z,21.74
2023-02-12T12:24:23.828Z,22.01
2023-02-12T12:25:27.463Z,21.92
2023-02-12T12:26:31.806Z,21.95
2023-02-12T12:28:03.688Z,22.19
2023-02-12T12:29:24.418Z,21.75
2023-02-12T12:30:47.130Z,21.77
2023-02-12T12:31:54.210Z,21.97
2023-02-12T12:33:00.336Z,21.97
2023-02-12T12:34:26.097Z,21.89
2023-02-12T12:35:47.396Z,21.90
2023-02-12T12:36:58.206Z,22.22
2023-02-12T12:38:09.137Z,22.13
2023-02-12T12:39:35.576Z,22.13
2023-02-12T12:40:53.160Z,21.77
2023-02-12T12:42:13.040Z,21.75
2023-02-12T12:43:26.480Z,22.10
2023-02-12T12:44:52.954Z,22.12
2023-02-12T12:46:16.793Z,21.69
2023-02-12T12:47:37.446Z,22.04
2023-02-12T12:48:56.837Z,22.10
2023-02-12T12:50:10.038Z,21.87
2023-02-12T12:51:58.779Z,22.12
2023-02-12T12:53:12.613Z,21.96
2023-02-12T12:54:17.091Z,22.07
2023-02-12T12:55:56.554Z,22.14
2023-02-12T12:57:37.984Z,22.04
2023-02-12T12:58:59.200Z,21.89
2023-02-12T13:00:18.007Z,22.00
2023-02-12T13:02:08.998Z,21.85
2023-02-12T13:03:34.010Z,21.81
2023-02-12T13:04:46.952Z,21.99
2023-02-12T13:06:13.537Z,22.06
2023-02-12T13:07:37.094Z,21.69
2023-02-12T13:08:53.993Z,21.89
2023-02-12T13:10:24.721Z,22.06
2023-02-12T13:11:46.738Z,21.93
2023-02-12T13:13:23.850Z,21.87
2023-02-12T13:14:47.530Z,21.96
2023-02-12T13:16:17.564Z,22.15
2023-02-12T13:17:26.174Z,21.79
2023-02-12T13:18:41.668Z,22.00
2023-02-12T13:20:08.279Z,21.78
2023-02-12T13:21:10.024Z,21.74
2023-02-12T13:22:17.669Z,22.31
2023-02-12T13:23:31.777Z,21.93
2023-02-12T13:24:52.688Z,21.96
2023-02-12T13:26:03.589Z,21.82
2023-02-12T13:27:12.952Z,22.15
2023-02-12T13:28:29.670Z,22.23
2023-02-12T13:29:38.742Z,21.83
2023-02-12T13:30:48.552Z,21.77
2023-02-12T13:32:05.590Z,21.91
2023-02-12T13:33:14.883Z,22.12
2023-02-12T13:34:19.008Z,22.08
2023-02-12T13:35:23.789Z,21.99
2023-02-12T13:36:25.844Z,21.90
2023-02-12T13:37:40.876Z,22.21
2023-02-12T13:39:18.405Z,22.21
2023-02-12T13:40:26.050Z,22.29
2023-02-12T13:41:28.769Z,22.28
2023-02-12T13:43:04.303Z,22.34
2023-02-12T13:44:16.719Z,22.05
2023-02-12T13:45:29.457Z,22.40
2023-02-12T13:47:00.164Z,21.87
2023-02-12T13:48:29.374Z,22.13
2023-02-12T13:49:53.652Z,22.09
2023-02-12T13:51:04.992Z,21.85
2023-02-12T13:52:26.988Z,22.32
2023-02-12T13:53:54.928Z,22.05
2023-02-12T13:55:14.908Z,22.03
2023-02-12T13:56:40.510Z,22.20
2023-02-12T13:57:42.355Z,22.13
2023-02-12T13:58:52.608Z,22.09
2023-02-12T13:59:58.173Z,22.30
2023-02-12T14:01:04.016Z,22.28
2023-02-12T14:02:12.846Z,22.31
2023-02-12T14:03:14.908Z,22.18
2023-02-12T14:04:39.868Z,22.41
2023-02-12T14:05:42.274Z,22.06
2023-02-12T14:07:02.608Z,21.93
2023-02-12T14:08:06.615Z,22.32
2023-02-12T14:09:11.200Z,22.50
2023-02-12T14:10:28.213Z,22.00
2023-02-12T14:11:30.291Z,22.01
2023-02-12T14:12:35.897Z,22.47
2023-02-12T14:13:58.539Z,22.39
2023-02-12T14:15:06.150Z,22.23
2023-02-12T14:16:34.894Z,22.23
2023-02-12T14:17:36.846Z,21.82
2023-02-12T14:18:38.811Z,22.32
2023-02-12T14:19:52.762Z,22.46
2023-02-12T14:21:12.476Z,22.40
2023-02-12T14:22:34.272Z,22.41
2023-02-12T14:23:36.561Z,22.11
2023-02-12T14:24:38.303Z,22.16
2023-02-12T14:25:43.760Z,22.31
2023-02-12T14:26:46.002Z,22.17
2023-02-12T14:27:53.209Z,22.57
2023-02-12T14:29:04.671Z,22.14
2023-02-12T14:30:09.962Z,22.05
2023-02-12T14:31:23.737Z,21.99
2023-02-12T14:32:50.757Z,22.18
2023-02-12T14:34:16.703Z,22.17
2023-02-12T14:35:30.923Z,22.43
2023-02-12T14:36:32.825Z,21.92
2023-02-12T14:37:37.990Z,22.37
2023-02-12T14:38:47.537Z,21.94
2023-02-12T14:39:49.771Z,22.03